Batu Pahat, Malaysia
Current Conditions -  °F | °C
As of 8:00 PM on Sunday 23 Nov 2014 (Local Time) from WMKJ Reporting Station
Broken Clouds Broken Clouds  
Wind Chill: 79°   Ceiling: 28000
Heat Index: 83°   Visibility: 6mi
Dew Point: 77°   Wind: 1mph
Humidity: 94%   Direction: 310°NW
Pressure: 29.77"   Gusts: NA
Location:  1.85°N, 102.94°E
Report Text: WMKJ 231200Z 31001KT 9999 FEW022 SCT130 BKN280 26/25 Q1008
Loading
Personal Weather Stations






























Interactive Weather Map New forecast layout! Learn more

10-Day Weather Forecast

Advertisements
Track Severe Weather on mobile